sensor_id;sensor_type;location;lat;lon;timestamp;temperature;humidity
57753;DHT22;43583;53.132;6.574;2023-02-11T00:02:01;6.20;99.90
57753;DHT22;43583;53.132;6.574;2023-02-11T00:04:29;6.20;99.90
57753;DHT22;43583;53.132;6.574;2023-02-11T00:06:55;6.30;99.90
57753;DHT22;43583;53.132;6.574;2023-02-11T00:09:20;6.30;99.90
57753;DHT22;43583;53.132;6.574;2023-02-11T00:11:46;6.30;99.90
57753;DHT22;43583;53.132;6.574;2023-02-11T00:14:12;6.30;99.90
57753;DHT22;43583;53.132;6.574;2023-02-11T00:16:37;6.30;99.90
57753;DHT22;43583;53.132;6.574;2023-02-11T00:19:03;6.40;99.90
57753;DHT22;43583;53.132;6.574;2023-02-11T00:21:30;6.40;99.90
57753;DHT22;43583;53.132;6.574;2023-02-11T00:23:57;6.40;99.90
57753;DHT22;43583;53.132;6.574;2023-02-11T00:26:27;6.40;99.90
57753;DHT22;43583;53.132;6.574;2023-02-11T00:28:53;6.50;99.90
57753;DHT22;43583;53.132;6.574;2023-02-11T00:31:19;6.40;99.90
57753;DHT22;43583;53.132;6.574;2023-02-11T00:33:46;6.50;99.90
57753;DHT22;43583;53.132;6.574;2023-02-11T00:36:17;6.50;99.90
57753;DHT22;43583;53.132;6.574;2023-02-11T00:38:43;6.50;99.90
57753;DHT22;43583;53.132;6.574;2023-02-11T00:41:10;6.50;99.90
57753;DHT22;43583;53.132;6.574;2023-02-11T00:43:35;6.50;99.90
57753;DHT22;43583;53.132;6.574;2023-02-11T00:46:01;6.50;99.90
57753;DHT22;43583;53.132;6.574;2023-02-11T00:48:27;6.50;99.90
57753;DHT22;43583;53.132;6.574;2023-02-11T00:50:53;6.50;99.90
57753;DHT22;43583;53.132;6.574;2023-02-11T00:53:18;6.50;99.90
57753;DHT22;43583;53.132;6.574;2023-02-11T00:55:44;6.50;99.90
57753;DHT22;43583;53.132;6.574;2023-02-11T00:58:09;6.40;99.90
57753;DHT22;43583;53.132;6.574;2023-02-11T01:00:35;6.40;99.90
57753;DHT22;43583;53.132;6.574;2023-02-11T01:03:01;6.40;99.90
57753;DHT22;43583;53.132;6.574;2023-02-11T01:05:26;6.40;99.90
57753;DHT22;43583;53.132;6.574;2023-02-11T01:07:52;6.40;99.90
57753;DHT22;43583;53.132;6.574;2023-02-11T01:10:18;6.40;99.90
57753;DHT22;43583;53.132;6.574;2023-02-11T01:12:43;6.40;99.90
57753;DHT22;43583;53.132;6.574;2023-02-11T01:15:12;6.40;99.90
57753;DHT22;43583;53.132;6.574;2023-02-11T01:17:40;6.40;99.90
57753;DHT22;43583;53.132;6.574;2023-02-11T01:20:10;6.50;99.90
57753;DHT22;43583;53.132;6.574;2023-02-11T01:22:36;6.40;99.90
57753;DHT22;43583;53.132;6.574;2023-02-11T01:25:04;6.40;99.90
57753;DHT22;43583;53.132;6.574;2023-02-11T01:27:30;6.40;99.90
57753;DHT22;43583;53.132;6.574;2023-02-11T01:29:56;6.40;99.90
57753;DHT22;43583;53.132;6.574;2023-02-11T01:32:21;6.40;99.90
57753;DHT22;43583;53.132;6.574;2023-02-11T01:34:47;6.40;99.90
57753;DHT22;43583;53.132;6.574;2023-02-11T01:37:13;6.40;99.90
57753;DHT22;43583;53.132;6.574;2023-02-11T01:39:38;6.40;99.90
57753;DHT22;43583;53.132;6.574;2023-02-11T01:42:04;6.40;99.90
57753;DHT22;43583;53.132;6.574;2023-02-11T01:44:33;6.40;99.90
57753;DHT22;43583;53.132;6.574;2023-02-11T01:46:59;6.40;99.90
57753;DHT22;43583;53.132;6.574;2023-02-11T01:49:27;6.40;99.90
57753;DHT22;43583;53.132;6.574;2023-02-11T01:54:40;6.30;99.90
57753;DHT22;43583;53.132;6.574;2023-02-11T01:57:27;6.30;99.90
57753;DHT22;43583;53.132;6.574;2023-02-11T02:00:03;6.30;99.90
57753;DHT22;43583;53.132;6.574;2023-02-11T02:08:06;6.30;99.90
57753;DHT22;43583;53.132;6.574;2023-02-11T02:10:35;6.30;99.90
57753;DHT22;43583;53.132;6.574;2023-02-11T02:13:02;6.30;99.90
57753;DHT22;43583;53.132;6.574;2023-02-11T02:15:33;6.30;99.90
57753;DHT22;43583;53.132;6.574;2023-02-11T02:18:15;6.30;99.90
57753;DHT22;43583;53.132;6.574;2023-02-11T02:32:18;6.30;99.90
57753;DHT22;43583;53.132;6.574;2023-02-11T02:35:00;6.30;99.90
57753;DHT22;43583;53.132;6.574;2023-02-11T02:37:37;6.30;99.90
57753;DHT22;43583;53.132;6.574;2023-02-11T02:40:19;6.30;99.90
57753;DHT22;43583;53.132;6.574;2023-02-11T02:42:46;6.30;99.90
57753;DHT22;43583;53.132;6.574;2023-02-11T02:45:12;6.30;99.90
57753;DHT22;43583;53.132;6.574;2023-02-11T02:47:39;6.30;99.90
57753;DHT22;43583;53.132;6.574;2023-02-11T02:50:06;6.30;99.90
57753;DHT22;43583;53.132;6.574;2023-02-11T02:56:05;6.30;99.90
57753;DHT22;43583;53.132;6.574;2023-02-11T02:58:40;6.30;99.90
57753;DHT22;43583;53.132;6.574;2023-02-11T03:04:27;6.30;99.90
57753;DHT22;43583;53.132;6.574;2023-02-11T03:07:08;6.40;99.90
57753;DHT22;43583;53.132;6.574;2023-02-11T03:12:29;6.40;99.90
57753;DHT22;43583;53.132;6.574;2023-02-11T03:14:58;6.40;99.90
57753;DHT22;43583;53.132;6.574;2023-02-11T03:17:27;6.40;99.90
57753;DHT22;43583;53.132;6.574;2023-02-11T03:19:54;6.40;99.90
57753;DHT22;43583;53.132;6.574;2023-02-11T03:22:24;6.40;99.90
57753;DHT22;43583;53.132;6.574;2023-02-11T03:24:52;6.50;99.90
57753;DHT22;43583;53.132;6.574;2023-02-11T03:27:27;6.50;99.90
57753;DHT22;43583;53.132;6.574;2023-02-11T03:30:19;6.50;99.90
57753;DHT22;43583;53.132;6.574;2023-02-11T03:32:56;6.50;99.90
57753;DHT22;43583;53.132;6.574;2023-02-11T03:35:28;6.50;99.90
57753;DHT22;43583;53.132;6.574;2023-02-11T03:38:01;6.50;99.90
57753;DHT22;43583;53.132;6.574;2023-02-11T03:40:34;6.60;99.90
57753;DHT22;43583;53.132;6.574;2023-02-11T03:45:35;6.60;99.90
57753;DHT22;43583;53.132;6.574;2023-02-11T03:48:14;6.70;99.90
57753;DHT22;43583;53.132;6.574;2023-02-11T03:50:42;6.70;99.90
57753;DHT22;43583;53.132;6.574;2023-02-11T03:53:10;6.70;99.90
57753;DHT22;43583;53.132;6.574;2023-02-11T03:55:39;6.70;99.90
57753;DHT22;43583;53.132;6.574;2023-02-11T03:58:06;6.70;99.90
57753;DHT22;43583;53.132;6.574;2023-02-11T04:00:33;6.80;99.90
57753;DHT22;43583;53.132;6.574;2023-02-11T04:02:59;6.80;99.90
57753;DHT22;43583;53.132;6.574;2023-02-11T04:05:25;6.80;99.90
57753;DHT22;43583;53.132;6.574;2023-02-11T04:07:51;6.80;99.90
57753;DHT22;43583;53.132;6.574;2023-02-11T04:10:16;6.80;99.90
57753;DHT22;43583;53.132;6.574;2023-02-11T04:12:42;6.90;99.90
57753;DHT22;43583;53.132;6.574;2023-02-11T04:15:08;6.90;99.90
57753;DHT22;43583;53.132;6.574;2023-02-11T04:17:34;6.90;99.90
57753;DHT22;43583;53.132;6.574;2023-02-11T04:19:59;6.90;99.90
57753;DHT22;43583;53.132;6.574;2023-02-11T04:22:25;6.90;99.90
57753;DHT22;43583;53.132;6.574;2023-02-11T04:24:51;6.90;99.90
57753;DHT22;43583;53.132;6.574;2023-02-11T04:27:17;6.90;99.90
57753;DHT22;43583;53.132;6.574;2023-02-11T04:29:42;7.00;99.90
57753;DHT22;43583;53.132;6.574;2023-02-11T04:32:09;7.00;99.90
57753;DHT22;43583;53.132;6.574;2023-02-11T04:34:35;7.00;99.90
57753;DHT22;43583;53.132;6.574;2023-02-11T04:37:00;7.00;99.90
57753;DHT22;43583;53.132;6.574;2023-02-11T04:39:26;7.00;99.90
57753;DHT22;43583;53.132;6.574;2023-02-11T04:41:52;7.00;99.90
57753;DHT22;43583;53.132;6.574;2023-02-11T04:44:17;7.00;99.90
57753;DHT22;43583;53.132;6.574;2023-02-11T04:46:43;7.00;99.90
57753;DHT22;43583;53.132;6.574;2023-02-11T04:49:12;7.10;99.90
57753;DHT22;43583;53.132;6.574;2023-02-11T04:51:37;7.10;99.90
57753;DHT22;43583;53.132;6.574;2023-02-11T04:54:03;7.10;99.90
57753;DHT22;43583;53.132;6.574;2023-02-11T04:56:29;7.10;99.90
57753;DHT22;43583;53.132;6.574;2023-02-11T04:58:54;7.10;99.90
57753;DHT22;43583;53.132;6.574;2023-02-11T05:01:20;7.10;99.90
57753;DHT22;43583;53.132;6.574;2023-02-11T05:03:45;7.10;99.90
57753;DHT22;43583;53.132;6.574;2023-02-11T05:06:11;7.10;99.90
57753;DHT22;43583;53.132;6.574;2023-02-11T05:08:37;7.10;99.90
57753;DHT22;43583;53.132;6.574;2023-02-11T05:11:03;7.10;99.90
57753;DHT22;43583;53.132;6.574;2023-02-11T05:13:29;7.10;99.90
57753;DHT22;43583;53.132;6.574;2023-02-11T05:15:54;7.10;99.90
57753;DHT22;43583;53.132;6.574;2023-02-11T05:18:20;7.00;99.90
57753;DHT22;43583;53.132;6.574;2023-02-11T05:20:46;7.10;99.90
57753;DHT22;43583;53.132;6.574;2023-02-11T05:23:12;7.10;99.90
57753;DHT22;43583;53.132;6.574;2023-02-11T05:25:37;7.10;99.90
57753;DHT22;43583;53.132;6.574;2023-02-11T05:28:03;7.10;99.90
57753;DHT22;43583;53.132;6.574;2023-02-11T05:30:30;7.10;99.90
57753;DHT22;43583;53.132;6.574;2023-02-11T05:32:56;7.10;99.90
57753;DHT22;43583;53.132;6.574;2023-02-11T05:35:21;7.00;99.90
57753;DHT22;43583;53.132;6.574;2023-02-11T05:37:47;7.00;99.90
57753;DHT22;43583;53.132;6.574;2023-02-11T05:40:13;7.00;99.90
57753;DHT22;43583;53.132;6.574;2023-02-11T05:42:38;7.00;99.90
57753;DHT22;43583;53.132;6.574;2023-02-11T05:45:05;7.00;99.90
57753;DHT22;43583;53.132;6.574;2023-02-11T05:47:31;6.90;99.90
57753;DHT22;43583;53.132;6.574;2023-02-11T05:49:57;6.90;99.90
57753;DHT22;43583;53.132;6.574;2023-02-11T05:52:23;6.90;99.90
57753;DHT22;43583;53.132;6.574;2023-02-11T05:54:48;6.90;99.90
57753;DHT22;43583;53.132;6.574;2023-02-11T05:57:14;6.90;99.90
57753;DHT22;43583;53.132;6.574;2023-02-11T05:59:40;7.00;99.90
57753;DHT22;43583;53.132;6.574;2023-02-11T06:02:06;6.90;99.90
57753;DHT22;43583;53.132;6.574;2023-02-11T06:04:33;6.90;99.90
57753;DHT22;43583;53.132;6.574;2023-02-11T06:06:58;6.90;99.90
57753;DHT22;43583;53.132;6.574;2023-02-11T06:09:24;6.90;99.90
57753;DHT22;43583;53.132;6.574;2023-02-11T06:11:50;6.90;99.90
57753;DHT22;43583;53.132;6.574;2023-02-11T06:14:15;6.90;99.90
57753;DHT22;43583;53.132;6.574;2023-02-11T06:16:41;6.90;99.90
57753;DHT22;43583;53.132;6.574;2023-02-11T06:19:06;6.90;99.90
57753;DHT22;43583;53.132;6.574;2023-02-11T06:21:32;6.80;99.90
57753;DHT22;43583;53.132;6.574;2023-02-11T06:23:58;6.80;99.90
57753;DHT22;43583;53.132;6.574;2023-02-11T06:26:23;6.80;99.90
57753;DHT22;43583;53.132;6.574;2023-02-11T06:28:49;6.80;99.90
57753;DHT22;43583;53.132;6.574;2023-02-11T06:31:15;6.80;99.90
57753;DHT22;43583;53.132;6.574;2023-02-11T06:33:41;6.80;99.90
57753;DHT22;43583;53.132;6.574;2023-02-11T06:36:16;6.80;99.90
57753;DHT22;43583;53.132;6.574;2023-02-11T06:38:42;6.80;99.90
57753;DHT22;43583;53.132;6.574;2023-02-11T06:41:12;6.80;99.90
57753;DHT22;43583;53.132;6.574;2023-02-11T06:43:39;6.70;99.90
57753;DHT22;43583;53.132;6.574;2023-02-11T06:46:05;6.70;99.90
57753;DHT22;43583;53.132;6.574;2023-02-11T06:48:31;6.70;99.90
57753;DHT22;43583;53.132;6.574;2023-02-11T06:51:00;6.70;99.90
57753;DHT22;43583;53.132;6.574;2023-02-11T06:53:27;6.60;99.90
57753;DHT22;43583;53.132;6.574;2023-02-11T06:55:52;6.60;99.90
57753;DHT22;43583;53.132;6.574;2023-02-11T06:58:18;6.60;99.90
57753;DHT22;43583;53.132;6.574;2023-02-11T07:00:43;6.60;99.90
57753;DHT22;43583;53.132;6.574;2023-02-11T07:03:09;6.60;99.90
57753;DHT22;43583;53.132;6.574;2023-02-11T07:05:34;6.50;99.90
57753;DHT22;43583;53.132;6.574;2023-02-11T07:08:01;6.60;99.90
57753;DHT22;43583;53.132;6.574;2023-02-11T07:10:27;6.60;99.90
57753;DHT22;43583;53.132;6.574;2023-02-11T07:12:52;6.50;99.90
57753;DHT22;43583;53.132;6.574;2023-02-11T07:15:18;6.60;99.90
57753;DHT22;43583;53.132;6.574;2023-02-11T07:17:43;6.60;99.90
57753;DHT22;43583;53.132;6.574;2023-02-11T07:20:09;6.60;99.90
57753;DHT22;43583;53.132;6.574;2023-02-11T07:22:36;6.60;99.90
57753;DHT22;43583;53.132;6.574;2023-02-11T07:25:02;6.70;99.90
57753;DHT22;43583;53.132;6.574;2023-02-11T07:27:28;6.70;99.90
57753;DHT22;43583;53.132;6.574;2023-02-11T07:29:54;6.80;99.90
57753;DHT22;43583;53.132;6.574;2023-02-11T07:32:20;6.80;99.90
57753;DHT22;43583;53.132;6.574;2023-02-11T07:34:46;6.80;99.90
57753;DHT22;43583;53.132;6.574;2023-02-11T07:37:12;6.90;99.90
57753;DHT22;43583;53.132;6.574;2023-02-11T07:39:38;6.90;99.90
57753;DHT22;43583;53.132;6.574;2023-02-11T07:42:04;6.90;99.90
57753;DHT22;43583;53.132;6.574;2023-02-11T07:44:30;7.00;99.90
57753;DHT22;43583;53.132;6.574;2023-02-11T07:46:58;7.00;99.90
57753;DHT22;43583;53.132;6.574;2023-02-11T07:49:23;7.00;99.90
57753;DHT22;43583;53.132;6.574;2023-02-11T07:51:49;7.00;99.90
57753;DHT22;43583;53.132;6.574;2023-02-11T07:54:15;7.10;99.90
57753;DHT22;43583;53.132;6.574;2023-02-11T07:56:41;7.10;99.90
57753;DHT22;43583;53.132;6.574;2023-02-11T07:59:07;7.10;99.90
57753;DHT22;43583;53.132;6.574;2023-02-11T08:01:34;7.20;99.90
57753;DHT22;43583;53.132;6.574;2023-02-11T08:04:00;7.20;99.90
57753;DHT22;43583;53.132;6.574;2023-02-11T08:06:29;7.30;99.90
57753;DHT22;43583;53.132;6.574;2023-02-11T08:08:55;7.30;99.90
57753;DHT22;43583;53.132;6.574;2023-02-11T08:11:26;7.30;99.90
57753;DHT22;43583;53.132;6.574;2023-02-11T08:13:53;7.30;99.90
57753;DHT22;43583;53.132;6.574;2023-02-11T08:16:22;7.40;99.90
57753;DHT22;43583;53.132;6.574;2023-02-11T08:18:48;7.40;99.90
57753;DHT22;43583;53.132;6.574;2023-02-11T08:21:14;7.40;99.90
57753;DHT22;43583;53.132;6.574;2023-02-11T08:23:40;7.50;99.90
57753;DHT22;43583;53.132;6.574;2023-02-11T08:26:09;7.50;99.90
57753;DHT22;43583;53.132;6.574;2023-02-11T08:28:36;7.60;99.90
57753;DHT22;43583;53.132;6.574;2023-02-11T08:31:09;7.60;99.90
57753;DHT22;43583;53.132;6.574;2023-02-11T08:33:35;7.60;99.90
57753;DHT22;43583;53.132;6.574;2023-02-11T08:36:11;7.60;99.90
57753;DHT22;43583;53.132;6.574;2023-02-11T08:38:37;7.70;99.90
57753;DHT22;43583;53.132;6.574;2023-02-11T08:41:03;7.70;99.90
57753;DHT22;43583;53.132;6.574;2023-02-11T08:43:29;7.70;99.90
57753;DHT22;43583;53.132;6.574;2023-02-11T08:45:55;7.80;99.90
57753;DHT22;43583;53.132;6.574;2023-02-11T08:48:20;7.80;99.90
57753;DHT22;43583;53.132;6.574;2023-02-11T08:50:46;7.90;99.90
57753;DHT22;43583;53.132;6.574;2023-02-11T08:53:11;7.90;99.90
57753;DHT22;43583;53.132;6.574;2023-02-11T08:55:37;7.90;99.90
57753;DHT22;43583;53.132;6.574;2023-02-11T08:58:03;8.00;99.90
57753;DHT22;43583;53.132;6.574;2023-02-11T09:00:28;8.00;99.90
57753;DHT22;43583;53.132;6.574;2023-02-11T09:02:54;8.00;99.90
57753;DHT22;43583;53.132;6.574;2023-02-11T09:05:20;8.10;99.90
57753;DHT22;43583;53.132;6.574;2023-02-11T09:07:46;8.10;99.90
57753;DHT22;43583;53.132;6.574;2023-02-11T09:10:12;8.10;99.90
57753;DHT22;43583;53.132;6.574;2023-02-11T09:12:38;8.20;99.90
57753;DHT22;43583;53.132;6.574;2023-02-11T09:15:03;8.20;99.90
57753;DHT22;43583;53.132;6.574;2023-02-11T09:17:29;8.20;99.90
57753;DHT22;43583;53.132;6.574;2023-02-11T09:19:55;8.30;99.90
57753;DHT22;43583;53.132;6.574;2023-02-11T09:22:20;8.30;99.90
57753;DHT22;43583;53.132;6.574;2023-02-11T09:24:46;8.30;99.90
57753;DHT22;43583;53.132;6.574;2023-02-11T09:27:11;8.40;99.90
57753;DHT22;43583;53.132;6.574;2023-02-11T09:29:37;8.40;99.90
57753;DHT22;43583;53.132;6.574;2023-02-11T09:32:03;8.40;99.90
57753;DHT22;43583;53.132;6.574;2023-02-11T09:34:28;8.50;99.90
57753;DHT22;43583;53.132;6.574;2023-02-11T09:36:54;8.50;99.90
57753;DHT22;43583;53.132;6.574;2023-02-11T09:39:19;8.50;99.90
57753;DHT22;43583;53.132;6.574;2023-02-11T09:42:01;8.60;99.90
57753;DHT22;43583;53.132;6.574;2023-02-11T09:44:32;8.70;99.90
57753;DHT22;43583;53.132;6.574;2023-02-11T09:47:21;8.80;99.90
57753;DHT22;43583;53.132;6.574;2023-02-11T09:49:52;8.90;99.90
57753;DHT22;43583;53.132;6.574;2023-02-11T09:52:39;8.90;99.90
57753;DHT22;43583;53.132;6.574;2023-02-11T09:55:18;9.00;99.90
57753;DHT22;43583;53.132;6.574;2023-02-11T09:57:45;9.10;99.90
57753;DHT22;43583;53.132;6.574;2023-02-11T10:00:26;9.20;99.90
57753;DHT22;43583;53.132;6.574;2023-02-11T10:11:38;9.70;99.90
57753;DHT22;43583;53.132;6.574;2023-02-11T10:17:36;9.60;99.90
57753;DHT22;43583;53.132;6.574;2023-02-11T10:22:59;9.60;99.90
57753;DHT22;43583;53.132;6.574;2023-02-11T10:27:58;9.70;99.90
57753;DHT22;43583;53.132;6.574;2023-02-11T10:30:32;9.70;99.90
57753;DHT22;43583;53.132;6.574;2023-02-11T10:35:46;9.70;99.90
57753;DHT22;43583;53.132;6.574;2023-02-11T10:38:11;9.70;99.90
57753;DHT22;43583;53.132;6.574;2023-02-11T10:40:37;9.80;99.90
57753;DHT22;43583;53.132;6.574;2023-02-11T10:43:05;9.80;99.90
57753;DHT22;43583;53.132;6.574;2023-02-11T10:45:47;9.80;99.90
57753;DHT22;43583;53.132;6.574;2023-02-11T10:48:37;9.80;99.90
57753;DHT22;43583;53.132;6.574;2023-02-11T10:53:33;9.90;99.90
57753;DHT22;43583;53.132;6.574;2023-02-11T10:56:00;9.80;99.90
57753;DHT22;43583;53.132;6.574;2023-02-11T10:58:30;9.90;99.90
57753;DHT22;43583;53.132;6.574;2023-02-11T11:00:59;9.90;99.90
57753;DHT22;43583;53.132;6.574;2023-02-11T11:03:28;9.90;99.90
57753;DHT22;43583;53.132;6.574;2023-02-11T11:06:03;9.80;99.90
57753;DHT22;43583;53.132;6.574;2023-02-11T11:08:40;9.90;99.90
57753;DHT22;43583;53.132;6.574;2023-02-11T11:11:12;9.90;99.90
57753;DHT22;43583;53.132;6.574;2023-02-11T11:13:39;9.80;99.90
57753;DHT22;43583;53.132;6.574;2023-02-11T11:16:14;9.90;99.90
57753;DHT22;43583;53.132;6.574;2023-02-11T11:18:43;9.90;99.90
57753;DHT22;43583;53.132;6.574;2023-02-11T11:22:05;9.80;99.90
57753;DHT22;43583;53.132;6.574;2023-02-11T11:24:38;9.80;99.90
57753;DHT22;43583;53.132;6.574;2023-02-11T11:27:05;9.80;99.90
57753;DHT22;43583;53.132;6.574;2023-02-11T11:32:04;9.80;99.90
57753;DHT22;43583;53.132;6.574;2023-02-11T11:34:41;9.80;99.90
57753;DHT22;43583;53.132;6.574;2023-02-11T11:37:36;9.80;99.90
57753;DHT22;43583;53.132;6.574;2023-02-11T11:40:22;9.80;99.90
57753;DHT22;43583;53.132;6.574;2023-02-11T11:43:04;9.90;99.90
57753;DHT22;43583;53.132;6.574;2023-02-11T11:45:31;9.90;99.90
57753;DHT22;43583;53.132;6.574;2023-02-11T11:48:05;10.00;99.90
57753;DHT22;43583;53.132;6.574;2023-02-11T11:50:36;10.00;99.90
57753;DHT22;43583;53.132;6.574;2023-02-11T11:53:25;10.10;99.90
57753;DHT22;43583;53.132;6.574;2023-02-11T11:56:29;10.10;99.90
57753;DHT22;43583;53.132;6.574;2023-02-11T11:58:59;10.10;99.90
57753;DHT22;43583;53.132;6.574;2023-02-11T12:01:47;10.20;99.90
57753;DHT22;43583;53.132;6.574;2023-02-11T12:07:26;10.30;99.90
57753;DHT22;43583;53.132;6.574;2023-02-11T12:13:13;10.40;99.90
57753;DHT22;43583;53.132;6.574;2023-02-11T12:35:46;10.40;99.90
57753;DHT22;43583;53.132;6.574;2023-02-11T12:41:08;10.40;99.90
57753;DHT22;43583;53.132;6.574;2023-02-11T12:43:39;10.40;99.90
57753;DHT22;43583;53.132;6.574;2023-02-11T12:49:15;10.40;99.90
57753;DHT22;43583;53.132;6.574;2023-02-11T12:51:59;10.40;99.90
57753;DHT22;43583;53.132;6.574;2023-02-11T12:54:58;10.50;99.90
57753;DHT22;43583;53.132;6.574;2023-02-11T12:57:30;10.50;99.90
57753;DHT22;43583;53.132;6.574;2023-02-11T13:00:21;10.50;99.90
57753;DHT22;43583;53.132;6.574;2023-02-11T13:07:49;10.80;99.90
57753;DHT22;43583;53.132;6.574;2023-02-11T13:13:28;11.00;99.90
57753;DHT22;43583;53.132;6.574;2023-02-11T13:15:57;10.90;99.90
57753;DHT22;43583;53.132;6.574;2023-02-11T13:18:44;11.00;99.90
57753;DHT22;43583;53.132;6.574;2023-02-11T13:24:19;10.80;99.90
57753;DHT22;43583;53.132;6.574;2023-02-11T13:30:01;10.70;99.90
57753;DHT22;43583;53.132;6.574;2023-02-11T13:35:41;10.50;99.90
57753;DHT22;43583;53.132;6.574;2023-02-11T13:38:20;10.40;99.90
57753;DHT22;43583;53.132;6.574;2023-02-11T13:41:05;10.30;99.90
57753;DHT22;43583;53.132;6.574;2023-02-11T13:43:34;10.30;99.90
57753;DHT22;43583;53.132;6.574;2023-02-11T13:46:02;10.30;99.90
57753;DHT22;43583;53.132;6.574;2023-02-11T13:48:32;10.20;99.90
57753;DHT22;43583;53.132;6.574;2023-02-11T13:51:02;10.20;99.90
57753;DHT22;43583;53.132;6.574;2023-02-11T13:53:30;10.30;99.90
57753;DHT22;43583;53.132;6.574;2023-02-11T13:56:11;10.30;99.90
57753;DHT22;43583;53.132;6.574;2023-02-11T13:58:49;10.30;99.90
57753;DHT22;43583;53.132;6.574;2023-02-11T14:01:41;10.30;99.90
57753;DHT22;43583;53.132;6.574;2023-02-11T14:05:01;10.30;99.90
57753;DHT22;43583;53.132;6.574;2023-02-11T14:11:03;10.30;99.90
57753;DHT22;43583;53.132;6.574;2023-02-11T14:16:16;10.30;99.90
57753;DHT22;43583;53.132;6.574;2023-02-11T14:21:32;10.20;99.90
57753;DHT22;43583;53.132;6.574;2023-02-11T14:29:15;10.20;99.90
57753;DHT22;43583;53.132;6.574;2023-02-11T14:31:58;10.10;99.90
57753;DHT22;43583;53.132;6.574;2023-02-11T14:37:16;10.10;99.90
57753;DHT22;43583;53.132;6.574;2023-02-11T14:42:49;10.00;99.90
57753;DHT22;43583;53.132;6.574;2023-02-11T14:45:20;9.90;99.90
57753;DHT22;43583;53.132;6.574;2023-02-11T14:48:14;9.90;99.90
57753;DHT22;43583;53.132;6.574;2023-02-11T14:50:42;9.80;99.90
57753;DHT22;43583;53.132;6.574;2023-02-11T14:53:15;9.80;99.90
57753;DHT22;43583;53.132;6.574;2023-02-11T14:55:43;9.80;99.90
57753;DHT22;43583;53.132;6.574;2023-02-11T14:58:20;9.80;99.90
57753;DHT22;43583;53.132;6.574;2023-02-11T15:00:51;9.80;99.90
57753;DHT22;43583;53.132;6.574;2023-02-11T15:08:29;9.80;99.90
57753;DHT22;43583;53.132;6.574;2023-02-11T15:10:56;9.70;99.90
57753;DHT22;43583;53.132;6.574;2023-02-11T15:13:24;9.70;99.90
57753;DHT22;43583;53.132;6.574;2023-02-11T15:15:55;9.70;99.90
57753;DHT22;43583;53.132;6.574;2023-02-11T15:18:24;9.70;99.90
57753;DHT22;43583;53.132;6.574;2023-02-11T15:20:53;9.70;99.90
57753;DHT22;43583;53.132;6.574;2023-02-11T15:23:26;9.70;99.90
57753;DHT22;43583;53.132;6.574;2023-02-11T15:25:53;9.70;99.90
57753;DHT22;43583;53.132;6.574;2023-02-11T15:28:28;9.70;99.90
57753;DHT22;43583;53.132;6.574;2023-02-11T15:31:04;9.70;99.90
57753;DHT22;43583;53.132;6.574;2023-02-11T15:33:30;9.70;99.90
57753;DHT22;43583;53.132;6.574;2023-02-11T15:35:58;9.70;99.90
57753;DHT22;43583;53.132;6.574;2023-02-11T15:38:27;9.70;99.90
57753;DHT22;43583;53.132;6.574;2023-02-11T15:40:59;9.70;99.90
57753;DHT22;43583;53.132;6.574;2023-02-11T15:43:45;9.70;99.90
57753;DHT22;43583;53.132;6.574;2023-02-11T15:46:17;9.60;99.90
57753;DHT22;43583;53.132;6.574;2023-02-11T15:48:51;9.60;99.90
57753;DHT22;43583;53.132;6.574;2023-02-11T15:51:24;9.60;99.90
57753;DHT22;43583;53.132;6.574;2023-02-11T15:54:23;9.60;99.90
57753;DHT22;43583;53.132;6.574;2023-02-11T15:56:52;9.60;99.90
57753;DHT22;43583;53.132;6.574;2023-02-11T15:59:27;9.50;99.90
57753;DHT22;43583;53.132;6.574;2023-02-11T16:02:03;9.50;99.90
57753;DHT22;43583;53.132;6.574;2023-02-11T16:04:30;9.50;99.90
57753;DHT22;43583;53.132;6.574;2023-02-11T16:06:58;9.50;99.90
57753;DHT22;43583;53.132;6.574;2023-02-11T16:09:35;9.40;99.90
57753;DHT22;43583;53.132;6.574;2023-02-11T16:12:04;9.40;99.90
57753;DHT22;43583;53.132;6.574;2023-02-11T16:14:35;9.40;99.90
57753;DHT22;43583;53.132;6.574;2023-02-11T16:19:46;9.30;99.90
57753;DHT22;43583;53.132;6.574;2023-02-11T16:22:29;9.20;99.90
57753;DHT22;43583;53.132;6.574;2023-02-11T16:25:00;9.20;99.90
57753;DHT22;43583;53.132;6.574;2023-02-11T16:27:39;9.20;99.90
57753;DHT22;43583;53.132;6.574;2023-02-11T16:30:26;9.20;99.90
57753;DHT22;43583;53.132;6.574;2023-02-11T16:32:53;9.10;99.90
57753;DHT22;43583;53.132;6.574;2023-02-11T16:35:19;9.10;99.90
57753;DHT22;43583;53.132;6.574;2023-02-11T16:37:45;9.10;99.90
57753;DHT22;43583;53.132;6.574;2023-02-11T16:40:11;9.10;99.90
57753;DHT22;43583;53.132;6.574;2023-02-11T16:42:37;9.10;99.90
57753;DHT22;43583;53.132;6.574;2023-02-11T16:45:03;9.00;99.90
57753;DHT22;43583;53.132;6.574;2023-02-11T16:47:30;9.00;99.90
57753;DHT22;43583;53.132;6.574;2023-02-11T16:49:59;9.00;99.90
57753;DHT22;43583;53.132;6.574;2023-02-11T16:52:26;9.00;99.90
57753;DHT22;43583;53.132;6.574;2023-02-11T16:54:52;9.00;99.90
57753;DHT22;43583;53.132;6.574;2023-02-11T16:57:20;9.00;99.90
57753;DHT22;43583;53.132;6.574;2023-02-11T16:59:46;8.90;99.90
57753;DHT22;43583;53.132;6.574;2023-02-11T17:02:19;8.90;99.90
57753;DHT22;43583;53.132;6.574;2023-02-11T17:04:47;8.90;99.90
57753;DHT22;43583;53.132;6.574;2023-02-11T17:07:13;9.00;99.90
57753;DHT22;43583;53.132;6.574;2023-02-11T17:09:38;8.90;99.90
57753;DHT22;43583;53.132;6.574;2023-02-11T17:12:04;8.80;99.90
57753;DHT22;43583;53.132;6.574;2023-02-11T17:14:30;8.90;99.90
57753;DHT22;43583;53.132;6.574;2023-02-11T17:16:56;8.90;99.90
57753;DHT22;43583;53.132;6.574;2023-02-11T17:19:25;8.80;99.90
57753;DHT22;43583;53.132;6.574;2023-02-11T17:21:52;8.80;99.90
57753;DHT22;43583;53.132;6.574;2023-02-11T17:24:19;8.80;99.90
57753;DHT22;43583;53.132;6.574;2023-02-11T17:26:45;8.80;99.90
57753;DHT22;43583;53.132;6.574;2023-02-11T17:29:14;8.80;99.90
57753;DHT22;43583;53.132;6.574;2023-02-11T17:31:40;8.80;99.90
57753;DHT22;43583;53.132;6.574;2023-02-11T17:34:08;8.70;99.90
57753;DHT22;43583;53.132;6.574;2023-02-11T17:36:34;8.70;99.90
57753;DHT22;43583;53.132;6.574;2023-02-11T17:39:01;8.70;99.90
57753;DHT22;43583;53.132;6.574;2023-02-11T17:41:27;8.70;99.90
57753;DHT22;43583;53.132;6.574;2023-02-11T17:43:56;8.70;99.90
57753;DHT22;43583;53.132;6.574;2023-02-11T17:46:22;8.60;99.90
57753;DHT22;43583;53.132;6.574;2023-02-11T17:48:53;8.60;99.90
57753;DHT22;43583;53.132;6.574;2023-02-11T17:51:22;8.60;99.90
57753;DHT22;43583;53.132;6.574;2023-02-11T17:53:48;8.60;99.90
57753;DHT22;43583;53.132;6.574;2023-02-11T17:56:16;8.60;99.90
57753;DHT22;43583;53.132;6.574;2023-02-11T17:58:42;8.60;99.90
57753;DHT22;43583;53.132;6.574;2023-02-11T18:01:07;8.50;99.90
57753;DHT22;43583;53.132;6.574;2023-02-11T18:03:33;8.50;99.90
57753;DHT22;43583;53.132;6.574;2023-02-11T18:06:00;8.50;99.90
57753;DHT22;43583;53.132;6.574;2023-02-11T18:08:26;8.40;99.90
57753;DHT22;43583;53.132;6.574;2023-02-11T18:10:54;8.30;99.90
57753;DHT22;43583;53.132;6.574;2023-02-11T18:13:19;8.20;99.90
57753;DHT22;43583;53.132;6.574;2023-02-11T18:15:45;8.10;99.90